createdAt,value
2022-10-09T00:00:46.626Z,4.00
2022-10-09T00:03:14.327Z,3.33
2022-10-09T00:05:41.742Z,3.57
2022-10-09T00:08:08.555Z,3.53
2022-10-09T00:10:40.276Z,3.53
2022-10-09T00:13:07.026Z,3.77
2022-10-09T00:15:39.040Z,3.50
2022-10-09T00:18:06.597Z,4.07
2022-10-09T00:20:39.652Z,3.60
2022-10-09T00:23:07.094Z,3.67
2022-10-09T00:25:34.584Z,3.73
2022-10-09T00:28:01.560Z,3.57
2022-10-09T00:30:28.413Z,3.50
2022-10-09T00:32:55.658Z,3.50
2022-10-09T00:35:23.104Z,3.43
2022-10-09T00:37:49.866Z,3.40
2022-10-09T00:40:16.967Z,3.50
2022-10-09T00:42:45.771Z,3.77
2022-10-09T00:45:20.911Z,3.60
2022-10-09T00:47:50.802Z,3.60
2022-10-09T00:50:39.991Z,3.23
2022-10-09T00:53:07.075Z,3.20
2022-10-09T00:55:35.078Z,3.97
2022-10-09T00:58:02.741Z,3.90
2022-10-09T01:00:29.714Z,3.50
2022-10-09T01:02:56.636Z,3.50
2022-10-09T01:05:29.655Z,3.33
2022-10-09T01:07:59.018Z,3.30
2022-10-09T01:10:59.457Z,3.40
2022-10-09T01:13:32.823Z,3.33
2022-10-09T01:16:04.563Z,3.30
2022-10-09T01:18:45.582Z,3.50
2022-10-09T01:21:20.138Z,3.30
2022-10-09T01:24:25.900Z,3.50
2022-10-09T01:27:07.419Z,3.33
2022-10-09T01:29:36.950Z,3.20
2022-10-09T01:32:04.851Z,3.13
2022-10-09T01:34:32.511Z,3.30
2022-10-09T01:36:59.444Z,3.20
2022-10-09T01:39:26.990Z,3.07
2022-10-09T01:41:53.871Z,3.10
2022-10-09T01:44:27.655Z,3.33
2022-10-09T01:46:54.277Z,3.40
2022-10-09T01:49:45.810Z,2.70
2022-10-09T01:52:27.066Z,3.07
2022-10-09T01:55:32.736Z,3.33
2022-10-09T01:58:15.160Z,3.03
2022-10-09T02:00:45.766Z,2.90
2022-10-09T02:03:13.943Z,3.13
2022-10-09T02:05:41.570Z,3.00
2022-10-09T02:08:09.666Z,3.13
2022-10-09T02:10:37.748Z,3.17
2022-10-09T02:13:05.683Z,3.00
2022-10-09T02:15:39.030Z,3.50
2022-10-09T02:18:10.564Z,3.50
2022-10-09T02:20:40.166Z,3.37
2022-10-09T02:23:08.060Z,3.40
2022-10-09T02:25:34.762Z,3.00
2022-10-09T02:28:01.864Z,3.30
2022-10-09T02:30:34.936Z,3.10
2022-10-09T02:33:01.560Z,3.37
2022-10-09T02:35:28.192Z,3.60
2022-10-09T02:37:54.771Z,3.40
2022-10-09T02:40:21.389Z,3.47
2022-10-09T02:42:48.203Z,3.50
2022-10-09T02:45:15.047Z,3.10
2022-10-09T02:47:41.621Z,3.37
2022-10-09T02:50:08.815Z,3.90
2022-10-09T02:52:35.394Z,4.07
2022-10-09T02:55:01.991Z,3.80
2022-10-09T02:57:28.616Z,4.13
2022-10-09T02:59:55.241Z,3.83
2022-10-09T03:02:22.013Z,4.07
2022-10-09T03:04:48.674Z,3.90
2022-10-09T03:07:15.256Z,3.87
2022-10-09T03:09:41.995Z,3.93
2022-10-09T03:12:08.620Z,3.87
2022-10-09T03:14:35.261Z,4.03
2022-10-09T03:17:01.842Z,3.60
2022-10-09T03:19:28.439Z,3.73
2022-10-09T03:21:55.044Z,3.83
2022-10-09T03:24:22.704Z,3.90
2022-10-09T03:26:49.394Z,3.70
2022-10-09T03:29:16.005Z,4.13
2022-10-09T03:31:57.886Z,3.67
2022-10-09T03:34:24.584Z,3.50
2022-10-09T03:36:51.239Z,3.67
2022-10-09T03:39:17.861Z,3.50
2022-10-09T03:41:44.502Z,3.60
2022-10-09T03:44:11.098Z,3.80
2022-10-09T03:46:37.805Z,3.60
2022-10-09T03:49:04.437Z,3.53
2022-10-09T03:51:31.070Z,3.90
2022-10-09T03:53:58.316Z,3.20
2022-10-09T03:56:25.014Z,3.17
2022-10-09T03:58:51.650Z,3.33
2022-10-09T04:01:18.443Z,2.93
2022-10-09T04:03:45.090Z,3.20
2022-10-09T04:06:11.739Z,3.27
2022-10-09T04:08:38.347Z,3.07
2022-10-09T04:11:05.166Z,2.83
2022-10-09T04:13:31.770Z,2.90
2022-10-09T04:15:58.450Z,2.80
2022-10-09T04:18:25.181Z,2.90
2022-10-09T04:20:53.580Z,2.87
2022-10-09T04:23:21.507Z,3.30
2022-10-09T04:25:48.126Z,3.20
2022-10-09T04:28:14.808Z,3.10
2022-10-09T04:30:41.530Z,3.00
2022-10-09T04:33:12.762Z,2.90
2022-10-09T04:35:46.945Z,2.70
2022-10-09T04:38:13.595Z,2.93
2022-10-09T04:40:41.066Z,2.80
2022-10-09T04:43:07.697Z,2.77
2022-10-09T04:45:34.427Z,2.83
2022-10-09T04:48:01.046Z,2.90
2022-10-09T04:50:27.657Z,2.73
2022-10-09T04:52:54.256Z,2.67
2022-10-09T04:55:20.868Z,2.80
2022-10-09T04:57:47.491Z,2.77
2022-10-09T05:00:14.447Z,2.70
2022-10-09T05:02:41.068Z,3.03
2022-10-09T05:05:08.163Z,2.53
2022-10-09T05:07:34.754Z,2.90
2022-10-09T05:10:01.413Z,3.03
2022-10-09T05:12:28.016Z,2.90
2022-10-09T05:14:54.628Z,3.40
2022-10-09T05:17:23.490Z,2.90
2022-10-09T05:19:50.389Z,3.13
2022-10-09T05:22:17.013Z,2.97
2022-10-09T05:24:43.653Z,3.17
2022-10-09T05:27:10.266Z,3.10
2022-10-09T05:29:36.873Z,3.40
2022-10-09T05:32:03.790Z,2.90
2022-10-09T05:34:30.536Z,3.43
2022-10-09T05:36:57.150Z,3.00
2022-10-09T05:39:23.758Z,2.90
2022-10-09T05:41:50.372Z,3.60
2022-10-09T05:44:17.044Z,3.27
2022-10-09T05:46:43.714Z,3.10
2022-10-09T05:49:12.080Z,3.70
2022-10-09T05:51:42.693Z,3.10
2022-10-09T05:54:13.771Z,3.53
2022-10-09T05:56:41.185Z,3.63
2022-10-09T05:59:09.824Z,3.47
2022-10-09T06:01:39.620Z,3.10
2022-10-09T06:04:09.842Z,3.30
2022-10-09T06:06:38.563Z,3.20
2022-10-09T06:09:06.350Z,3.40
2022-10-09T06:11:35.441Z,3.30
2022-10-09T06:14:05.500Z,3.50
2022-10-09T06:16:34.893Z,3.37
2022-10-09T06:19:02.318Z,3.07
2022-10-09T06:21:29.170Z,3.13
2022-10-09T06:23:58.333Z,3.20
2022-10-09T06:26:26.152Z,3.40
2022-10-09T06:28:52.880Z,3.40
2022-10-09T06:31:25.015Z,3.27
2022-10-09T06:33:53.024Z,3.10
2022-10-09T06:36:25.160Z,3.73
2022-10-09T06:38:52.696Z,3.20
2022-10-09T06:41:21.663Z,3.10
2022-10-09T06:43:50.643Z,3.40
2022-10-09T06:46:17.538Z,3.27
2022-10-09T06:48:44.188Z,3.00
2022-10-09T06:51:16.420Z,3.30
2022-10-09T06:53:48.384Z,2.80
2022-10-09T06:56:16.350Z,3.00
2022-10-09T06:58:43.389Z,3.43
2022-10-09T07:01:19.157Z,3.10
2022-10-09T07:03:48.156Z,3.23
2022-10-09T07:06:20.494Z,3.07
2022-10-09T07:08:52.972Z,3.30
2022-10-09T07:11:22.617Z,3.23
2022-10-09T07:13:51.251Z,3.30
2022-10-09T07:16:23.186Z,3.23
2022-10-09T07:18:49.963Z,3.10
2022-10-09T07:21:17.169Z,3.03
2022-10-09T07:23:44.163Z,3.27
2022-10-09T07:26:14.050Z,3.17
2022-10-09T07:28:41.729Z,2.97
2022-10-09T07:31:08.722Z,3.03
2022-10-09T07:33:35.595Z,3.10
2022-10-09T07:36:03.557Z,3.07
2022-10-09T07:38:30.320Z,2.70
2022-10-09T07:41:01.963Z,2.43
2022-10-09T07:43:28.595Z,3.10
2022-10-09T07:45:59.503Z,2.87
2022-10-09T07:48:26.313Z,2.67
2022-10-09T07:50:53.220Z,2.67
2022-10-09T07:53:20.034Z,2.50
2022-10-09T07:55:47.790Z,2.50
2022-10-09T07:58:15.463Z,2.90
2022-10-09T08:00:42.898Z,2.47
2022-10-09T08:03:09.896Z,2.50
2022-10-09T08:05:36.571Z,2.60
2022-10-09T08:08:03.292Z,2.60
2022-10-09T08:10:31.133Z,2.30
2022-10-09T08:12:57.750Z,2.40
2022-10-09T08:15:24.497Z,2.43
2022-10-09T08:17:54.834Z,2.90
2022-10-09T08:20:21.601Z,2.40
2022-10-09T08:22:48.477Z,2.50
2022-10-09T08:25:15.302Z,2.40
2022-10-09T08:27:41.919Z,2.50
2022-10-09T08:30:09.009Z,2.20
2022-10-09T08:32:35.605Z,2.67
2022-10-09T08:35:02.186Z,2.50
2022-10-09T08:37:28.879Z,2.50
2022-10-09T08:39:55.470Z,2.33
2022-10-09T08:42:44.370Z,2.53
2022-10-09T08:45:16.123Z,2.40
2022-10-09T08:47:51.089Z,2.50
2022-10-09T08:50:25.055Z,2.50
2022-10-09T08:52:57.182Z,2.50
2022-10-09T08:55:28.676Z,2.40
2022-10-09T08:57:57.512Z,2.37
2022-10-09T09:00:27.658Z,2.10
2022-10-09T09:03:12.951Z,2.07
2022-10-09T09:05:48.802Z,1.90
2022-10-09T09:08:28.487Z,2.20
2022-10-09T09:11:22.576Z,1.90
2022-10-09T09:14:27.079Z,2.00
2022-10-09T09:16:59.610Z,2.20
2022-10-09T09:19:35.272Z,2.07
2022-10-09T09:22:02.212Z,2.13
2022-10-09T09:24:42.636Z,2.03
2022-10-09T09:27:19.260Z,2.20
2022-10-09T09:30:17.695Z,2.00
2022-10-09T09:32:59.580Z,2.00
2022-10-09T09:35:56.430Z,2.00
2022-10-09T09:38:23.050Z,1.90
2022-10-09T09:40:50.733Z,1.60
2022-10-09T09:43:20.161Z,1.90
2022-10-09T09:45:47.557Z,2.20
2022-10-09T09:48:32.421Z,1.70
2022-10-09T09:51:23.631Z,1.97
2022-10-09T09:53:56.449Z,2.00
2022-10-09T09:56:59.896Z,1.60
2022-10-09T09:59:41.748Z,1.90
2022-10-09T10:02:14.675Z,1.70
2022-10-09T10:05:23.840Z,1.70
2022-10-09T10:07:51.471Z,1.70
2022-10-09T10:10:25.518Z,1.80
2022-10-09T10:12:53.018Z,1.70
2022-10-09T10:15:20.957Z,1.70
2022-10-09T10:17:49.014Z,1.70
2022-10-09T10:20:17.350Z,1.70
2022-10-09T10:22:52.183Z,1.67
2022-10-09T10:25:21.467Z,1.70
2022-10-09T10:27:51.288Z,1.80
2022-10-09T10:30:19.569Z,1.43
2022-10-09T10:32:56.442Z,1.70
2022-10-09T10:35:35.839Z,1.70
2022-10-09T10:38:26.392Z,1.60
2022-10-09T10:41:03.291Z,1.60
2022-10-09T10:43:49.509Z,1.70
2022-10-09T10:46:25.460Z,1.40
2022-10-09T10:48:52.400Z,1.50
2022-10-09T10:51:53.733Z,1.37
2022-10-09T10:54:34.107Z,1.60
2022-10-09T10:57:15.323Z,1.40
2022-10-09T11:00:00.511Z,1.60
2022-10-09T11:02:53.218Z,1.27
2022-10-09T11:05:47.718Z,1.30
2022-10-09T11:08:32.474Z,1.30
2022-10-09T11:11:18.936Z,1.40
2022-10-09T11:14:16.596Z,1.70
2022-10-09T11:17:00.224Z,1.57
2022-10-09T11:19:45.821Z,1.53
2022-10-09T11:22:31.244Z,1.30
2022-10-09T11:25:14.142Z,1.33
2022-10-09T11:27:50.631Z,1.43
2022-10-09T11:30:18.908Z,1.30
2022-10-09T11:32:45.462Z,1.63
2022-10-09T11:35:12.077Z,1.77
2022-10-09T11:37:41.023Z,1.90
2022-10-09T11:40:16.981Z,1.80
2022-10-09T11:42:47.567Z,1.70
2022-10-09T11:45:29.875Z,1.50
2022-10-09T11:48:11.972Z,1.60
2022-10-09T11:50:57.720Z,1.60
2022-10-09T11:53:26.068Z,1.20
2022-10-09T11:56:06.600Z,1.30
2022-10-09T11:58:33.684Z,1.20
2022-10-09T12:01:21.968Z,1.40
2022-10-09T12:04:00.752Z,1.30
2022-10-09T12:06:28.210Z,1.30
2022-10-09T12:08:58.455Z,1.47
2022-10-09T12:11:25.290Z,1.10
2022-10-09T12:13:54.272Z,1.40
2022-10-09T12:16:44.178Z,1.10
2022-10-09T12:19:35.364Z,1.10
2022-10-09T12:22:14.629Z,1.27
2022-10-09T12:24:46.889Z,1.10
2022-10-09T12:27:34.892Z,0.97
2022-10-09T12:30:14.246Z,1.10
2022-10-09T12:32:47.281Z,1.20
2022-10-09T12:35:25.276Z,1.10
2022-10-09T12:37:52.252Z,1.30
2022-10-09T12:40:27.369Z,1.20
2022-10-09T12:42:55.315Z,0.90
2022-10-09T12:45:25.177Z,1.20
2022-10-09T12:47:52.827Z,1.07
2022-10-09T12:50:24.611Z,1.00
2022-10-09T12:52:57.652Z,1.00
2022-10-09T12:55:40.542Z,1.00
2022-10-09T12:58:14.143Z,0.97
2022-10-09T13:00:41.152Z,1.30
2022-10-09T13:03:23.236Z,1.23
2022-10-09T13:05:50.061Z,1.10
2022-10-09T13:08:34.032Z,1.20
2022-10-09T13:11:24.680Z,1.10
2022-10-09T13:13:52.642Z,1.00
2022-10-09T13:16:19.682Z,1.00
2022-10-09T13:18:57.177Z,1.27
2022-10-09T13:21:35.146Z,0.90
2022-10-09T13:24:08.969Z,1.00
2022-10-09T13:26:35.667Z,1.10
2022-10-09T13:29:03.686Z,1.17
2022-10-09T13:31:30.333Z,1.20
2022-10-09T13:33:56.937Z,1.20
2022-10-09T13:36:23.523Z,1.00
2022-10-09T13:38:50.156Z,1.10
2022-10-09T13:41:21.968Z,1.07
2022-10-09T13:43:49.486Z,1.00
2022-10-09T13:46:16.463Z,0.90
2022-10-09T13:48:43.484Z,1.00
2022-10-09T13:51:11.453Z,1.17
2022-10-09T13:53:38.289Z,1.07
2022-10-09T13:56:05.413Z,0.90
2022-10-09T13:58:32.033Z,1.20
2022-10-09T14:00:59.009Z,1.20
2022-10-09T14:03:25.715Z,1.20
2022-10-09T14:06:01.069Z,1.03
2022-10-09T14:08:27.688Z,1.30
2022-10-09T14:10:54.615Z,1.13
2022-10-09T14:13:21.737Z,1.47
2022-10-09T14:15:48.438Z,1.10
2022-10-09T14:18:15.062Z,1.20
2022-10-09T14:20:41.744Z,1.27
2022-10-09T14:23:09.283Z,1.20
2022-10-09T14:25:35.931Z,1.20
2022-10-09T14:28:03.001Z,1.47
2022-10-09T14:30:29.732Z,2.10
2022-10-09T14:32:56.512Z,3.57
2022-10-09T14:35:23.568Z,3.83
2022-10-09T14:37:50.188Z,3.13
2022-10-09T14:40:17.023Z,2.20
2022-10-09T14:42:43.613Z,2.10
2022-10-09T14:45:10.878Z,2.00
2022-10-09T14:47:37.512Z,1.90
2022-10-09T14:50:04.505Z,1.80
2022-10-09T14:52:31.131Z,1.60
2022-10-09T14:54:57.980Z,1.60
2022-10-09T14:57:24.631Z,1.60
2022-10-09T14:59:51.276Z,1.60
2022-10-09T15:02:18.263Z,1.70
2022-10-09T15:04:45.465Z,1.53
2022-10-09T15:07:12.078Z,1.43
2022-10-09T15:09:38.725Z,1.60
2022-10-09T15:12:05.566Z,1.60
2022-10-09T15:14:32.224Z,1.37
2022-10-09T15:16:58.928Z,1.37
2022-10-09T15:19:25.722Z,1.30
2022-10-09T15:21:52.333Z,1.30
2022-10-09T15:24:18.930Z,1.50
2022-10-09T15:26:45.543Z,1.30
2022-10-09T15:29:12.195Z,1.30
2022-10-09T15:31:40.919Z,1.47
2022-10-09T15:34:08.962Z,1.20
2022-10-09T15:36:37.723Z,1.40
2022-10-09T15:39:07.092Z,1.40
2022-10-09T15:41:36.003Z,1.40
2022-10-09T15:44:05.456Z,1.47
2022-10-09T15:46:32.402Z,1.60
2022-10-09T15:48:59.018Z,1.30
2022-10-09T15:51:25.887Z,1.67
2022-10-09T15:53:52.998Z,1.33
2022-10-09T15:56:22.335Z,1.33
2022-10-09T15:58:49.384Z,1.33
2022-10-09T16:01:17.379Z,1.53
2022-10-09T16:03:44.325Z,1.30
2022-10-09T16:06:14.901Z,1.50
2022-10-09T16:08:42.026Z,1.90
2022-10-09T16:11:11.241Z,1.67
2022-10-09T16:13:40.365Z,1.53
2022-10-09T16:16:10.133Z,1.73
2022-10-09T16:18:37.136Z,1.60
2022-10-09T16:21:15.607Z,1.73
2022-10-09T16:23:43.325Z,1.70
2022-10-09T16:26:11.183Z,1.63
2022-10-09T16:28:38.123Z,1.90
2022-10-09T16:31:05.228Z,1.53
2022-10-09T16:33:32.198Z,1.80
2022-10-09T16:36:12.218Z,1.70
2022-10-09T16:38:39.966Z,1.93
2022-10-09T16:41:12.521Z,1.80
2022-10-09T16:43:39.688Z,1.80
2022-10-09T16:46:15.802Z,1.80
2022-10-09T16:48:42.951Z,1.70
2022-10-09T16:51:15.240Z,2.00
2022-10-09T16:53:42.051Z,2.00
2022-10-09T16:56:11.741Z,1.80
2022-10-09T16:58:39.501Z,2.20
2022-10-09T17:01:09.804Z,1.90
2022-10-09T17:03:40.358Z,2.20
2022-10-09T17:06:12.025Z,2.33
2022-10-09T17:08:39.145Z,2.23
2022-10-09T17:11:09.850Z,2.27
2022-10-09T17:13:36.824Z,2.20
2022-10-09T17:16:07.517Z,2.17
2022-10-09T17:18:35.165Z,2.13
2022-10-09T17:21:03.714Z,2.30
2022-10-09T17:23:30.436Z,2.10
2022-10-09T17:25:57.178Z,2.10
2022-10-09T17:28:24.742Z,2.20
2022-10-09T17:30:51.393Z,2.10
2022-10-09T17:33:19.937Z,1.90
2022-10-09T17:35:47.035Z,2.60
2022-10-09T17:38:13.739Z,2.17
2022-10-09T17:40:41.097Z,2.10
2022-10-09T17:43:08.592Z,1.90
2022-10-09T17:45:42.664Z,2.30
2022-10-09T17:48:10.010Z,2.20
2022-10-09T17:50:36.752Z,2.60
2022-10-09T17:53:04.103Z,2.30
2022-10-09T17:55:31.236Z,2.30
2022-10-09T17:57:57.919Z,2.10
2022-10-09T18:00:24.615Z,2.50
2022-10-09T18:02:51.226Z,2.27
2022-10-09T18:05:17.952Z,2.27
2022-10-09T18:07:44.590Z,2.03
2022-10-09T18:10:11.192Z,2.20
2022-10-09T18:12:37.834Z,2.40
2022-10-09T18:18:49.152Z,2.50
2022-10-09T18:21:17.023Z,2.73
2022-10-09T18:23:47.081Z,2.47
2022-10-09T18:26:16.123Z,2.13
2022-10-09T18:28:46.050Z,2.40
2022-10-09T18:34:05.768Z,2.20
2022-10-09T18:36:34.128Z,2.50
2022-10-09T18:39:09.989Z,2.50
2022-10-09T18:41:37.235Z,2.60
2022-10-09T18:44:05.267Z,2.50
2022-10-09T18:46:39.344Z,2.80
2022-10-09T18:49:10.657Z,2.40
2022-10-09T18:51:38.614Z,2.70
2022-10-09T18:54:06.393Z,2.47
2022-10-09T18:56:34.747Z,2.90
2022-10-09T18:59:11.219Z,2.90
2022-10-09T19:01:48.844Z,3.10
2022-10-09T19:04:22.941Z,3.10
2022-10-09T19:06:49.840Z,3.07
2022-10-09T19:09:16.603Z,3.10
2022-10-09T19:11:43.197Z,3.00
2022-10-09T19:14:09.826Z,3.13
2022-10-09T19:16:36.515Z,3.27
2022-10-09T19:19:03.334Z,3.20
2022-10-09T19:21:29.959Z,3.10
2022-10-09T19:23:56.890Z,2.90
2022-10-09T19:26:24.081Z,2.90
2022-10-09T19:28:50.817Z,2.90
2022-10-09T19:31:18.653Z,2.60
2022-10-09T19:33:45.551Z,2.70
2022-10-09T19:36:13.516Z,2.60
2022-10-09T19:38:40.937Z,2.70
2022-10-09T19:41:10.129Z,2.67
2022-10-09T19:43:37.330Z,3.00
2022-10-09T19:46:05.407Z,2.70
2022-10-09T19:48:32.367Z,2.70
2022-10-09T19:51:00.081Z,3.03
2022-10-09T19:53:26.827Z,2.93
2022-10-09T19:55:53.640Z,3.27
2022-10-09T19:58:20.306Z,2.97
2022-10-09T20:00:47.111Z,2.93
2022-10-09T20:03:14.012Z,3.27
2022-10-09T20:05:40.801Z,3.20
2022-10-09T20:08:07.903Z,3.43
2022-10-09T20:10:38.394Z,3.30
2022-10-09T20:13:05.898Z,3.50
2022-10-09T20:15:35.725Z,3.03
2022-10-09T20:18:02.368Z,3.00
2022-10-09T20:20:29.096Z,2.97
2022-10-09T20:22:55.729Z,3.00
2022-10-09T20:25:22.800Z,3.07
2022-10-09T20:27:49.456Z,2.97
2022-10-09T20:30:16.425Z,3.30
2022-10-09T20:32:43.340Z,3.23
2022-10-09T20:35:10.185Z,3.37
2022-10-09T20:37:36.943Z,3.30
2022-10-09T20:40:04.244Z,3.50
2022-10-09T20:42:31.942Z,3.30
2022-10-09T20:44:58.556Z,3.00
2022-10-09T20:47:25.417Z,3.30
2022-10-09T20:49:57.634Z,3.00
2022-10-09T20:52:24.304Z,3.30
2022-10-09T20:54:51.056Z,3.23
2022-10-09T20:57:17.708Z,3.20
2022-10-09T20:59:44.447Z,3.50
2022-10-09T21:02:14.608Z,3.20
2022-10-09T21:04:41.329Z,3.37
2022-10-09T21:07:08.042Z,3.20
2022-10-09T21:09:34.715Z,3.40
2022-10-09T21:12:02.350Z,3.30
2022-10-09T21:14:28.956Z,3.97
2022-10-09T21:16:55.600Z,3.20
2022-10-09T21:19:22.221Z,3.60
2022-10-09T21:21:51.174Z,3.90
2022-10-09T21:24:18.191Z,3.40
2022-10-09T21:26:47.032Z,3.23
2022-10-09T21:29:14.157Z,3.40
2022-10-09T21:31:40.796Z,3.40
2022-10-09T21:34:07.455Z,3.60
2022-10-09T21:37:15.957Z,3.30
2022-10-09T21:39:33.251Z,3.43
2022-10-09T21:41:59.871Z,3.20
2022-10-09T21:44:27.489Z,3.63
2022-10-09T21:46:54.205Z,3.17
2022-10-09T21:49:27.056Z,3.30
2022-10-09T21:51:53.927Z,2.97
2022-10-09T21:54:20.958Z,3.30
2022-10-09T21:56:48.245Z,3.20
2022-10-09T21:59:14.923Z,2.83
2022-10-09T22:01:41.572Z,3.30
2022-10-09T22:04:08.549Z,2.90
2022-10-09T22:06:35.247Z,2.90
2022-10-09T22:09:01.909Z,3.30
2022-10-09T22:11:28.500Z,3.10
2022-10-09T22:13:55.794Z,2.93
2022-10-09T22:16:22.455Z,3.20
2022-10-09T22:18:49.104Z,3.20
2022-10-09T22:21:16.239Z,3.10
2022-10-09T22:23:43.409Z,3.07
2022-10-09T22:26:16.994Z,2.80
2022-10-09T22:28:44.993Z,3.07
2022-10-09T22:31:21.643Z,3.10
2022-10-09T22:33:56.691Z,2.80
2022-10-09T22:36:24.833Z,3.00
2022-10-09T22:38:56.554Z,2.83
2022-10-09T22:41:24.286Z,3.17
2022-10-09T22:43:53.553Z,2.80
2022-10-09T22:46:27.941Z,2.97
2022-10-09T22:48:55.160Z,3.27
2022-10-09T22:51:23.693Z,3.03
2022-10-09T22:53:50.477Z,3.10
2022-10-09T22:56:19.114Z,2.93
2022-10-09T22:58:46.453Z,2.70
2022-10-09T23:01:38.200Z,2.80
2022-10-09T23:04:07.888Z,2.77
2022-10-09T23:06:35.033Z,2.70
2022-10-09T23:09:05.416Z,2.83
2022-10-09T23:11:32.093Z,2.80
2022-10-09T23:14:01.869Z,2.70
2022-10-09T23:16:30.134Z,3.10
2022-10-09T23:18:58.227Z,2.80
2022-10-09T23:21:25.082Z,2.90
2022-10-09T23:23:52.401Z,2.97
2022-10-09T23:26:30.283Z,2.87
2022-10-09T23:28:59.463Z,3.00
2022-10-09T23:31:27.277Z,2.90
2022-10-09T23:33:54.075Z,2.67
2022-10-09T23:36:22.821Z,2.70
2022-10-09T23:38:49.651Z,2.70
2022-10-09T23:41:18.895Z,3.00
2022-10-09T23:43:46.450Z,2.70
2022-10-09T23:46:16.195Z,2.93
2022-10-09T23:48:43.554Z,2.80
2022-10-09T23:51:10.935Z,2.87
2022-10-09T23:53:37.900Z,2.77
2022-10-09T23:56:16.640Z,2.97
2022-10-09T23:58:43.258Z,2.97
